Racecast

Colton Hendicksen

Rye (NY) · 12 · SOUTH CENTRALCO D2ACOUNTY CROSS2A · Compare head to head

Athlete rating 95.4 2024 XC season
Best race 104.5 XC
Races 63
Seasons 5 2021 — 2025

RankedNation #126941·CO #2168·CO D2A #574·SOUTH CENTRAL #33·Team #28 ?

Speed rating — all races

Cross Country

XC speed rating

2024 XC 93.9

Rye (NY) · Grade 12

Date Meet Event Result Place Rating Difficulty PR/SR Flags
2024-10-25 Rocky Ford High School 5000m 21:51.3 50th · 6th on team 97.0 +0.041 CSR RSR
2024-09-26 Royal Gorge Bridge & Park 5000m 23:16.9 102nd · 4th on team 92.8 +0.043 CSR
2024-09-14 Van Tuyl Trail System 5000m 22:54.6 81st · 4th on team 93.3 +0.041 CSR
2024-09-07 Cattails Golf Course 5000m 21:49.8 212th · 6th on team 95.0 +0.012 SR CSR RSR
2024-08-23 Norris Penrose Event Center 5000m 23:53 112th · 5th on team 91.5 +0.067 SR CSR RSR

2023 XC 102.1

Rye (NY) · Grade 11

Date Meet Event Result Place Rating Difficulty PR/SR Flags
2023-10-20 Buena Vista High School 5000m 21:25.1 40th · 3rd on team 102.6 +0.072 ★CR CSR
2023-09-30 Salida High School 5000m 23:01 82nd · 3rd on team 98.0 +0.092 CSR
2023-09-16 Van Tuyl Trail System 5000m 20:53.2 49th · 3rd on team 102.1 +0.041 ★CR CSR
2023-09-09 Cattails Golf Course 5000m 20:22.6 102nd · 2nd on team 102.6 +0.012
2023-09-07 Cattails Golf Course 5000m 20:22.6 102nd · 2nd on team 102.6 +0.012 PR CR SR CSR
2023-09-01 Rocky Ford High School 5000m 20:58.5 48th · 4th on team 102.8 +0.041 CSR
2023-08-26 Elmwood Golf Course 5000m 20:25.7 40th · 2nd on team 104.2 +0.038 PR ★CR SR CSR RSR

2022 XC 100.9

Rye (NY) · Grade 10

Date Meet Event Result Place Rating Difficulty PR/SR Flags
2022-10-21 Rocky Ford High School 5000m 20:45.7 43rd · 3rd on team 104.5 +0.041 PR ★CR ★R SR CSR RSR
2022-10-01 Salida High School 5000m 21:45.7 97th · 3rd on team 103.5 +0.092 ★CR R CSR RSR
2022-09-29 Royal Gorge Bridge & Park 5000m 22:07.9 94th · 3rd on team 97.7 +0.043 ★CR CSR
2022-09-23 Hollydot Golf Course 5000m 21:19.8 29th · 4th on team 103.0 +0.064 PR ★CR R SR CSR RSR
2022-09-02 Norris Penrose Event Center 5000m 22:25.4 111th · 3rd on team 98.9 +0.067 ★CR R CSR RSR
2022-08-26 Rocky Ford High School 5000m 21:48.3 37th · 4th on team 98.1 +0.041 PR CR SR CSR RSR

2021 XC 90.1

Rye (NY) · Grade 9

Date Meet Event Result Place Rating Difficulty PR/SR Flags
2021-10-22 Babcock Park 5000m 22:24.5 70th · 3rd on team 94.2 +0.009 PR ★CR R SR CSR RSR
2021-10-13 Elmwood Golf Course 5000m 23:43.6 32nd · 2nd on team 91.6 +0.038 PR CR R SR CSR RSR
2021-09-28 Hollydot Golf Course 5000m 24:27.7 39th · 4th on team 90.9 +0.064 PR CR R SR CSR RSR
2021-09-11 Cattails Golf Course 5000m +0.012 CR CSR
2021-09-03 Norris Penrose Event Center 5000m 25:42.9 98th · 3rd on team 86.3 +0.067 CR CSR
2021-08-27 Rocky Ford High School 5000m 25:10.2 72nd · 3rd on team 87.2 +0.041 PR CR R SR CSR RSR

Track & Field

TF speed rating

2025 TF 96.9

Rye (NY) · Grade 12

Date Meet Event Result Place Rating Difficulty PR/SR Flags
2025-05-09 Friday Night Lights 1600m 5:45.04 54th · 2nd on team 99.7 -0.011 SR RSR
2025-04-28 Rye Thunderbolt Invitational 800m 2:52.62 24th · 5th on team 92.6 +0.023 SR
2025-04-28 Rye Thunderbolt Invitational 1600m 6:01.4 17th · 3rd on team 98.7 +0.023
2025-04-12 Thunder-Storm Invitational 3200m 12:39.01 28th · 3rd on team 99.4 -0.006 ★PR SR RSR
2025-04-12 Thunder-Storm Invitational 1600m 6:06.82 26th · 2nd on team 94.5 -0.006
2025-04-11 Ray Headley Invitational 1600m 5:58.12 14th · 3rd on team 96.7 -0.005 SR RSR
2025-04-11 Ray Headley Invitational 3200m 12:57.15 2nd · 1st on team 96.6 -0.005 SR

2024 TF

Rye (NY) · Grade 11

Date Meet Event Result Place Rating Difficulty PR/SR Flags
2024-05-10 Pueblo West Friday Night Lights 400m 1:08.67 49th · 1st on team -0.011 ★PR SR
2024-05-10 Pueblo West Friday Night Lights 200m 30 65th · 3rd on team -0.011 ★PR SR
2024-04-05 Steel City Fast Track Invitational 200m 31.83 50th · 2nd on team -0.011 PR SR
2024-04-05 Steel City Fast Track Invitational 3200m 15:12.79 29th · 3rd on team -0.011 SR

2023 TF 99.9

Rye (NY) · Grade 10

Date Meet Event Result Place Rating Difficulty PR/SR Flags
2023-04-28 Rocky Ford Invitational 300mh 56.53 12th · 2nd on team -0.018
2023-04-27 SCL League Meet/Pueblo County Championships 800m 2:29.23 15th · 2nd on team 103.6 -0.011 ★PR SR RSR
2023-04-14 Santa Fe League Meet 300mh 1:01.36 5th · 2nd on team -0.005
2023-04-14 Santa Fe League Meet 3200m 12:52.06 5th · 3rd on team 97.4 -0.005
2023-04-08 Thunder-Storm Invitational 1600m 5:44.46 53rd · 2nd on team 100.3 -0.006 ★PR SR RSR
2023-04-08 Thunder-Storm Invitational 300mh 56.16 41st · 1st on team -0.006 ★PR SR
2023-04-07 Ray Headley Invitational 300mh 58.31 7th · 2nd on team -0.005 PR SR
2023-04-01 Salida Invitational 1600m 6:01.16 16th · 1st on team 98.3 +0.018 SR RSR
2023-04-01 Salida Invitational 3200m 12:46 8th · 1st on team 100.1 +0.018 PR SR RSR

2022 TF 95.0

Rye (NY) · Grade 9

Date Meet Event Result Place Rating Difficulty PR/SR Flags
2022-05-13 Friday Night Lights Cyclone Invitational 1600m 5:53.29 53rd · 1st on team 98.8 -0.011 PR R SR RSR
2022-05-13 Friday Night Lights Cyclone Invitational 800m 2:43.02 59th · 1st on team 95.9 -0.011
2022-05-06 The Pueblo Twilight 400m 1:09.28 38th · 1st on team -0.011 PR SR
2022-05-06 The Pueblo Twilight 1600m 5:57.97 65th · 1st on team 96.9 -0.011 PR R SR RSR
2022-05-02 Santa Fe League Meet discus 65' 11" +0.029
2022-05-02 Santa Fe League Meet 1600m 6:13.44 6th · 1st on team 96.7 +0.029 R RSR
2022-05-02 Santa Fe League Meet 800m 2:49.36 7th · 1st on team 95.6 +0.029
2022-04-28 SCL League Meet/Pueblo County Championships discus 57-06 -0.011
2022-04-28 SCL League Meet/Pueblo County Championships 800m 2:42.2 17th · 3rd on team 96.0 -0.011 PR R SR RSR
2022-04-28 SCL League Meet/Pueblo County Championships 3200m 13:32.79 10th · 2nd on team 92.6 -0.011 PR SR
2022-04-16 Del Norte Tiger Invitational 3200m 13:55.42 7th · 1st on team 93.7 +0.032 PR SR
2022-04-16 Del Norte Tiger Invitational 800m 2:54.54 12th · 2nd on team 93.1 +0.032
2022-04-14 High Altitude Challenge discus 87' 4" +0.020
2022-04-14 High Altitude Challenge 800m 2:49.7 27th · 1st on team 94.6 +0.020
2022-04-09 Thunder-Storm Invitational discus 57-08.50 -0.006
2022-04-09 Thunder-Storm Invitational 800m 2:45.81 38th · 2nd on team 94.2 -0.006 PR R SR RSR
2022-04-09 Thunder-Storm Invitational 1600m 6:08.35 33rd · 2nd on team 94.7 -0.006 PR R SR RSR
2022-04-02 Hornet Track and Field Invitational 100m 14.95 67th · 3rd on team -0.011 ★PR SR
2022-04-02 Hornet Track and Field Invitational 800m 2:48.11 44th · 1st on team 92.3 -0.011 PR SR RSR